createdAt,value
2023-07-31T00:00:03.529Z,8.65
2023-07-31T00:02:32.152Z,6.03
2023-07-31T00:05:02.251Z,5.78
2023-07-31T00:07:30.670Z,5.22
2023-07-31T00:09:59.139Z,7.13
2023-07-31T00:12:27.717Z,6.13
2023-07-31T00:14:56.181Z,6.18
2023-07-31T00:17:24.695Z,5.95
2023-07-31T00:19:53.143Z,7.30
2023-07-31T00:22:22.974Z,6.75
2023-07-31T00:24:51.922Z,5.82
2023-07-31T00:27:20.408Z,6.30
2023-07-31T00:29:49.155Z,5.93
2023-07-31T00:32:17.599Z,7.20
2023-07-31T00:34:46.088Z,5.22
2023-07-31T00:37:14.539Z,6.00
2023-07-31T00:39:45.022Z,5.03
2023-07-31T00:42:13.429Z,5.38
2023-07-31T00:44:41.832Z,6.45
2023-07-31T00:47:10.350Z,5.22
2023-07-31T00:49:38.826Z,5.32
2023-07-31T00:52:07.811Z,5.47
2023-07-31T00:54:36.552Z,6.15
2023-07-31T00:57:08.754Z,5.00
2023-07-31T00:59:37.375Z,5.05
2023-07-31T01:02:06.609Z,7.05
2023-07-31T01:04:35.322Z,4.88
2023-07-31T01:07:05.108Z,4.43
2023-07-31T01:09:37.212Z,4.28
2023-07-31T01:12:09.704Z,5.28
2023-07-31T01:14:38.351Z,6.70
2023-07-31T01:17:07.127Z,4.50
2023-07-31T01:19:35.763Z,4.15
2023-07-31T01:22:25.266Z,3.95
2023-07-31T01:24:58.668Z,3.88
2023-07-31T01:27:30.697Z,4.97
2023-07-31T01:30:02.220Z,4.50
2023-07-31T01:32:31.355Z,4.55
2023-07-31T01:35:00.966Z,4.95
2023-07-31T01:37:31.233Z,5.22
2023-07-31T01:39:59.691Z,4.22
2023-07-31T01:42:29.663Z,6.32
2023-07-31T01:44:58.104Z,4.43
2023-07-31T01:47:26.694Z,4.55
2023-07-31T01:49:55.270Z,4.30
2023-07-31T01:52:23.731Z,4.55
2023-07-31T01:54:52.210Z,5.15
2023-07-31T01:57:20.722Z,4.55
2023-07-31T01:59:50.576Z,4.03
2023-07-31T02:02:19.110Z,3.22
2023-07-31T02:04:47.782Z,5.47
2023-07-31T02:07:16.241Z,3.47
2023-07-31T02:09:44.662Z,3.78
2023-07-31T02:12:13.267Z,4.40
2023-07-31T02:14:41.718Z,3.47
2023-07-31T02:17:11.543Z,4.18
2023-07-31T02:19:40.002Z,3.45
2023-07-31T02:22:08.556Z,3.83
2023-07-31T02:24:36.988Z,4.03
2023-07-31T02:27:05.623Z,5.22
2023-07-31T02:29:34.362Z,3.33
2023-07-31T02:32:02.799Z,4.38
2023-07-31T02:34:32.684Z,3.83
2023-07-31T02:37:01.140Z,4.35
2023-07-31T02:39:29.591Z,3.40
2023-07-31T02:41:58.128Z,5.43
2023-07-31T02:44:26.615Z,3.13
2023-07-31T02:46:55.072Z,7.50
2023-07-31T02:49:23.544Z,4.50
2023-07-31T02:51:53.408Z,3.50
2023-07-31T02:54:22.732Z,3.63
2023-07-31T02:56:51.548Z,3.65
2023-07-31T02:59:20.375Z,5.88
2023-07-31T03:01:48.905Z,3.15
2023-07-31T03:04:18.873Z,5.57
2023-07-31T03:06:47.620Z,5.18
2023-07-31T03:09:17.452Z,4.43
2023-07-31T03:11:45.951Z,3.80
2023-07-31T03:14:16.757Z,4.75
2023-07-31T03:16:46.453Z,4.20
2023-07-31T03:19:14.955Z,3.10
2023-07-31T03:21:43.540Z,4.78
2023-07-31T03:24:13.191Z,6.20
2023-07-31T03:26:43.523Z,3.67
2023-07-31T03:29:12.421Z,5.72
2023-07-31T03:31:40.892Z,3.80
2023-07-31T03:34:09.434Z,4.75
2023-07-31T03:36:38.216Z,3.58
2023-07-31T03:39:06.912Z,4.22
2023-07-31T03:41:35.406Z,3.72
2023-07-31T03:44:05.344Z,3.47
2023-07-31T03:46:34.807Z,5.93
2023-07-31T03:49:03.406Z,3.40
2023-07-31T03:51:31.864Z,4.90
2023-07-31T03:54:00.319Z,5.10
2023-07-31T03:56:28.799Z,4.22
2023-07-31T03:58:57.239Z,4.10
2023-07-31T04:01:27.117Z,4.07
2023-07-31T04:03:55.617Z,4.07
2023-07-31T04:06:24.085Z,5.93
2023-07-31T04:08:52.520Z,4.28
2023-07-31T04:11:21.008Z,3.72
2023-07-31T04:13:49.428Z,4.55
2023-07-31T04:16:17.914Z,3.67
2023-07-31T04:18:47.796Z,6.18
2023-07-31T04:21:16.208Z,4.18
2023-07-31T04:23:44.650Z,4.05
2023-07-31T04:26:13.361Z,4.07
2023-07-31T04:28:42.133Z,5.50
2023-07-31T04:31:10.650Z,4.03
2023-07-31T04:33:39.117Z,4.47
2023-07-31T04:36:08.936Z,3.80
2023-07-31T04:38:37.391Z,3.58
2023-07-31T04:41:06.838Z,3.78
2023-07-31T04:43:35.309Z,3.90
2023-07-31T04:46:03.846Z,5.05
2023-07-31T04:48:32.335Z,7.00
2023-07-31T04:51:00.765Z,4.38
2023-07-31T04:53:30.566Z,5.15
2023-07-31T04:55:59.134Z,4.43
2023-07-31T04:58:27.565Z,5.07
2023-07-31T05:00:56.012Z,3.55
2023-07-31T05:03:24.572Z,3.88
2023-07-31T05:05:53.133Z,4.00
2023-07-31T05:08:21.558Z,3.47
2023-07-31T05:10:51.421Z,3.30
2023-07-31T05:13:19.857Z,4.57
2023-07-31T05:15:50.515Z,3.03
2023-07-31T05:18:19.027Z,3.17
2023-07-31T05:20:47.605Z,5.03
2023-07-31T05:23:16.062Z,3.78
2023-07-31T05:25:44.538Z,4.30
2023-07-31T05:28:14.400Z,3.72
2023-07-31T05:30:42.994Z,3.67
2023-07-31T05:33:13.747Z,5.50
2023-07-31T05:35:43.382Z,3.38
2023-07-31T05:38:11.822Z,4.18
2023-07-31T05:40:40.574Z,3.78
2023-07-31T05:43:09.429Z,3.55
2023-07-31T05:45:39.520Z,8.30
2023-07-31T05:48:08.076Z,5.10
2023-07-31T05:50:36.586Z,3.35
2023-07-31T05:53:05.010Z,3.30
2023-07-31T05:58:01.916Z,2.05
2023-07-31T06:00:30.565Z,2.20
2023-07-31T06:03:00.581Z,1.80
2023-07-31T06:05:31.091Z,1.52
2023-07-31T06:07:59.730Z,2.00
2023-07-31T06:10:29.443Z,1.98
2023-07-31T06:12:58.447Z,2.47
2023-07-31T06:15:26.904Z,2.05
2023-07-31T06:17:55.407Z,1.77
2023-07-31T06:20:25.631Z,1.45
2023-07-31T06:22:54.064Z,1.70
2023-07-31T06:25:22.659Z,2.72
2023-07-31T06:27:51.091Z,1.80
2023-07-31T06:30:20.117Z,1.80
2023-07-31T06:32:48.617Z,1.73
2023-07-31T06:35:17.078Z,1.80
2023-07-31T06:37:46.898Z,2.08
2023-07-31T06:40:15.401Z,1.80
2023-07-31T06:42:43.811Z,1.67
2023-07-31T06:45:12.777Z,1.70
2023-07-31T06:47:41.294Z,1.63
2023-07-31T06:50:10.980Z,1.67
2023-07-31T06:52:39.431Z,1.50
2023-07-31T06:55:19.864Z,2.30
2023-07-31T06:57:48.328Z,1.73
2023-07-31T07:00:17.171Z,2.10
2023-07-31T07:02:45.703Z,2.50
2023-07-31T07:05:14.214Z,2.30
2023-07-31T07:07:43.352Z,2.20
2023-07-31T07:10:13.491Z,1.90
2023-07-31T07:12:41.945Z,2.08
2023-07-31T07:15:10.885Z,2.30
2023-07-31T07:17:39.376Z,2.83
2023-07-31T07:20:09.069Z,2.03
2023-07-31T07:22:37.875Z,2.20
2023-07-31T07:25:08.313Z,2.30
2023-07-31T07:27:38.196Z,2.40
2023-07-31T07:30:07.395Z,4.63
2023-07-31T07:32:35.993Z,2.60
2023-07-31T07:35:04.458Z,3.40
2023-07-31T07:37:34.077Z,2.72
2023-07-31T07:40:02.702Z,3.38
2023-07-31T07:42:31.946Z,3.13
2023-07-31T07:45:01.761Z,2.50
2023-07-31T07:47:30.289Z,2.80
2023-07-31T07:49:58.797Z,2.97
2023-07-31T07:52:27.252Z,2.75
2023-07-31T07:54:55.760Z,2.30
2023-07-31T07:57:24.184Z,5.78
2023-07-31T07:59:52.659Z,3.22
2023-07-31T08:02:22.542Z,2.20
2023-07-31T08:04:51.161Z,4.30
2023-07-31T08:07:19.614Z,3.45
2023-07-31T08:09:48.126Z,2.88
2023-07-31T08:12:16.628Z,2.53
2023-07-31T08:14:45.071Z,3.42
2023-07-31T08:17:13.593Z,2.40
2023-07-31T08:19:43.515Z,3.00
2023-07-31T08:22:12.015Z,2.40
2023-07-31T08:24:40.516Z,2.30
2023-07-31T08:27:09.396Z,2.40
2023-07-31T08:29:38.055Z,3.22
2023-07-31T08:32:06.767Z,3.47
2023-07-31T08:34:35.346Z,3.53
2023-07-31T08:37:05.219Z,2.55
2023-07-31T08:39:33.676Z,4.15
2023-07-31T08:42:02.232Z,5.88
2023-07-31T08:44:32.632Z,6.65
2023-07-31T08:47:01.218Z,8.77
2023-07-31T08:49:30.220Z,7.35
2023-07-31T08:51:59.427Z,6.32
2023-07-31T08:54:32.389Z,15.18
2023-07-31T08:57:01.132Z,25.20
2023-07-31T08:59:31.201Z,18.27
2023-07-31T09:02:01.109Z,17.85
2023-07-31T09:04:29.679Z,16.35
2023-07-31T09:07:02.266Z,17.45
2023-07-31T09:09:32.115Z,9.82
2023-07-31T09:12:00.964Z,12.63
2023-07-31T09:14:29.469Z,15.13
2023-07-31T09:16:59.535Z,20.90
2023-07-31T09:19:28.810Z,23.75
2023-07-31T09:21:57.380Z,15.70
2023-07-31T09:24:29.579Z,16.92
2023-07-31T09:27:00.623Z,23.58
2023-07-31T09:29:30.874Z,26.08
2023-07-31T09:32:00.074Z,26.70
2023-07-31T09:34:32.444Z,28.98
2023-07-31T09:37:04.462Z,29.55
2023-07-31T09:39:33.266Z,29.48
2023-07-31T09:42:03.102Z,29.50
2023-07-31T09:44:41.350Z,30.25
2023-07-31T09:47:09.842Z,29.25
2023-07-31T09:49:38.303Z,32.45
2023-07-31T09:52:14.526Z,29.60
2023-07-31T09:54:42.981Z,29.65
2023-07-31T09:57:13.442Z,30.98
2023-07-31T09:59:42.382Z,28.85
2023-07-31T10:02:10.999Z,26.98
2023-07-31T10:04:39.670Z,26.17
2023-07-31T10:07:08.298Z,30.70
2023-07-31T10:09:37.210Z,29.65
2023-07-31T10:12:10.893Z,28.23
2023-07-31T10:14:41.070Z,30.50
2023-07-31T10:17:09.712Z,34.13
2023-07-31T10:19:38.717Z,38.20
2023-07-31T10:22:07.645Z,38.78
2023-07-31T10:24:36.468Z,39.70
2023-07-31T10:27:05.342Z,40.60
2023-07-31T10:29:35.017Z,38.00
2023-07-31T10:32:07.663Z,32.35
2023-07-31T10:34:36.622Z,38.42
2023-07-31T10:37:19.991Z,41.53
2023-07-31T10:39:57.762Z,34.70
2023-07-31T10:42:30.467Z,37.38
2023-07-31T10:45:00.486Z,46.00
2023-07-31T10:47:30.381Z,43.90
2023-07-31T10:50:13.717Z,44.22
2023-07-31T10:52:42.253Z,48.53
2023-07-31T10:55:17.733Z,56.25
2023-07-31T10:57:48.176Z,59.00
2023-07-31T11:00:26.590Z,39.83
2023-07-31T11:03:06.657Z,47.15
2023-07-31T11:05:45.310Z,55.88
2023-07-31T11:08:14.689Z,59.40
2023-07-31T11:10:45.317Z,61.00
2023-07-31T11:13:13.919Z,47.95
2023-07-31T11:15:42.373Z,53.42
2023-07-31T11:18:12.638Z,64.60
2023-07-31T11:20:42.043Z,43.30
2023-07-31T11:23:11.720Z,54.35
2023-07-31T11:25:42.726Z,53.08
2023-07-31T11:28:12.185Z,62.22
2023-07-31T11:30:41.911Z,50.30
2023-07-31T11:33:12.888Z,60.53
2023-07-31T11:35:46.050Z,66.97
2023-07-31T11:38:15.092Z,78.97
2023-07-31T11:40:46.925Z,83.75
2023-07-31T11:43:18.234Z,51.58
2023-07-31T11:45:48.016Z,69.25
2023-07-31T11:48:23.115Z,83.70
2023-07-31T11:50:52.229Z,82.70
2023-07-31T11:53:22.693Z,90.07
2023-07-31T11:55:51.413Z,56.65
2023-07-31T11:58:20.789Z,51.72
2023-07-31T12:00:49.440Z,83.15
2023-07-31T12:03:18.164Z,59.33
2023-07-31T12:05:50.009Z,80.20
2023-07-31T12:08:18.475Z,86.03
2023-07-31T12:10:48.640Z,82.82
2023-07-31T12:13:22.978Z,65.50
2023-07-31T12:15:51.582Z,72.88
2023-07-31T12:18:22.163Z,88.95
2023-07-31T12:20:52.704Z,64.25
2023-07-31T12:23:26.761Z,61.47
2023-07-31T12:26:03.113Z,81.28
2023-07-31T12:28:31.833Z,56.83
2023-07-31T12:31:01.610Z,66.80
2023-07-31T12:33:34.371Z,77.22
2023-07-31T12:36:05.384Z,95.88
2023-07-31T12:38:33.864Z,52.70
2023-07-31T12:41:02.346Z,67.22
2023-07-31T12:43:30.767Z,83.40
2023-07-31T12:45:59.230Z,54.75
2023-07-31T12:48:27.886Z,78.50
2023-07-31T12:50:56.328Z,60.63
2023-07-31T12:53:26.163Z,44.97
2023-07-31T12:55:54.743Z,54.72
2023-07-31T12:58:23.251Z,84.60
2023-07-31T13:00:51.711Z,55.53
2023-07-31T13:03:20.468Z,40.80
2023-07-31T13:05:48.994Z,64.57
2023-07-31T13:08:18.789Z,75.10
2023-07-31T13:10:49.004Z,49.78
2023-07-31T13:13:17.526Z,54.63
2023-07-31T13:15:46.584Z,54.33
2023-07-31T13:18:15.120Z,32.47
2023-07-31T13:20:43.596Z,71.15
2023-07-31T13:23:12.238Z,117.13
2023-07-31T13:25:40.788Z,60.50
2023-07-31T13:28:10.733Z,73.05
2023-07-31T13:30:39.576Z,95.05
2023-07-31T13:33:17.826Z,48.40
2023-07-31T13:35:53.980Z,19.95
2023-07-31T13:38:22.453Z,51.90
2023-07-31T13:40:50.897Z,74.65
2023-07-31T13:43:20.763Z,40.10
2023-07-31T13:45:49.228Z,21.33
2023-07-31T13:48:17.651Z,52.42
2023-07-31T13:50:46.107Z,67.50
2023-07-31T13:53:14.625Z,77.68
2023-07-31T13:55:46.480Z,83.70
2023-07-31T13:58:15.004Z,78.63
2023-07-31T14:00:44.876Z,42.50
2023-07-31T14:03:13.515Z,59.05
2023-07-31T14:05:42.168Z,49.30
2023-07-31T14:08:10.601Z,23.88
2023-07-31T14:10:39.053Z,42.00
2023-07-31T14:13:07.553Z,53.42
2023-07-31T14:15:36.908Z,30.45
2023-07-31T14:18:07.087Z,16.85
2023-07-31T14:20:35.765Z,49.42
2023-07-31T14:23:05.043Z,30.70
2023-07-31T14:25:33.506Z,14.38
2023-07-31T14:28:02.000Z,44.63
2023-07-31T14:30:31.067Z,28.15
2023-07-31T14:33:01.714Z,15.23
2023-07-31T14:35:31.652Z,40.30
2023-07-31T14:38:00.126Z,33.05
2023-07-31T14:40:28.660Z,18.17
2023-07-31T14:42:57.161Z,34.13
2023-07-31T14:45:25.634Z,41.13
2023-07-31T14:47:54.126Z,22.52
2023-07-31T14:50:24.296Z,10.48
2023-07-31T14:52:54.166Z,44.25
2023-07-31T14:55:22.669Z,50.78
2023-07-31T14:57:51.229Z,26.60
2023-07-31T15:00:19.821Z,13.68
2023-07-31T15:02:48.356Z,51.20
2023-07-31T15:05:16.899Z,63.28
2023-07-31T15:07:45.341Z,33.50
2023-07-31T15:10:15.153Z,15.60
2023-07-31T15:12:44.813Z,8.93
2023-07-31T15:15:13.511Z,39.28
2023-07-31T15:17:42.056Z,21.02
2023-07-31T15:20:11.268Z,12.82
2023-07-31T15:22:39.713Z,8.48
2023-07-31T15:25:08.874Z,5.15
2023-07-31T15:27:38.755Z,4.30
2023-07-31T15:30:07.904Z,5.35
2023-07-31T15:32:36.429Z,36.47
2023-07-31T15:35:04.942Z,25.33
2023-07-31T15:37:33.398Z,11.98
2023-07-31T15:40:01.862Z,60.63
2023-07-31T15:42:30.330Z,42.92
2023-07-31T15:45:00.161Z,20.42
2023-07-31T15:47:29.331Z,11.88
2023-07-31T15:49:57.815Z,11.88
2023-07-31T15:52:26.315Z,7.75
2023-07-31T15:54:54.776Z,7.78
2023-07-31T15:57:23.305Z,48.90
2023-07-31T15:59:51.778Z,35.28
2023-07-31T16:02:21.867Z,18.13
2023-07-31T16:04:50.387Z,20.25
2023-07-31T16:07:18.877Z,38.15
2023-07-31T16:09:47.327Z,27.52
2023-07-31T16:12:15.835Z,15.57
2023-07-31T16:14:44.290Z,31.00
2023-07-31T16:17:12.758Z,39.30
2023-07-31T16:19:42.697Z,28.38
2023-07-31T16:22:11.187Z,14.93
2023-07-31T16:24:39.671Z,12.45
2023-07-31T16:27:08.368Z,27.88
2023-07-31T16:29:36.970Z,22.75
2023-07-31T16:32:05.549Z,12.32
2023-07-31T16:34:34.070Z,30.73
2023-07-31T16:37:03.910Z,17.92
2023-07-31T16:39:36.314Z,12.18
2023-07-31T16:42:04.878Z,5.40
2023-07-31T16:44:33.336Z,5.38
2023-07-31T16:47:01.818Z,4.05
2023-07-31T16:49:30.277Z,5.50
2023-07-31T16:51:58.770Z,2.95
2023-07-31T16:54:28.606Z,4.72
2023-07-31T16:56:59.881Z,3.08
2023-07-31T16:59:29.068Z,5.13
2023-07-31T17:02:00.040Z,3.80
2023-07-31T17:04:29.015Z,4.47
2023-07-31T17:06:57.701Z,4.50
2023-07-31T17:09:26.651Z,2.70
2023-07-31T17:11:56.465Z,3.17
2023-07-31T17:14:24.924Z,2.55
2023-07-31T17:16:53.464Z,4.30
2023-07-31T17:19:21.952Z,2.80
2023-07-31T17:21:50.472Z,3.63
2023-07-31T17:24:18.959Z,2.50
2023-07-31T17:26:47.432Z,3.53
2023-07-31T17:29:18.302Z,4.72
2023-07-31T17:31:47.644Z,2.72
2023-07-31T17:34:16.082Z,3.35
2023-07-31T17:36:44.730Z,2.50
2023-07-31T17:39:13.514Z,2.58
2023-07-31T17:41:42.153Z,5.47
2023-07-31T17:44:10.678Z,3.17
2023-07-31T17:46:40.984Z,2.63
2023-07-31T17:49:11.269Z,4.45
2023-07-31T17:51:39.805Z,3.13
2023-07-31T17:54:09.505Z,3.35
2023-07-31T17:56:39.571Z,6.25
2023-07-31T17:59:08.602Z,3.58
2023-07-31T18:01:38.478Z,3.88
2023-07-31T18:04:08.588Z,4.55
2023-07-31T18:06:37.077Z,2.75
2023-07-31T18:09:06.002Z,5.53
2023-07-31T18:11:35.331Z,2.55
2023-07-31T18:14:04.646Z,3.00
2023-07-31T18:16:34.183Z,4.47
2023-07-31T18:19:02.723Z,4.68
2023-07-31T18:21:34.863Z,6.45
2023-07-31T18:24:04.554Z,4.10
2023-07-31T18:26:33.057Z,6.38
2023-07-31T18:29:01.580Z,4.85
2023-07-31T18:31:30.299Z,4.13
2023-07-31T18:33:58.746Z,5.18
2023-07-31T18:36:27.173Z,5.28
2023-07-31T18:38:58.395Z,5.88
2023-07-31T18:41:27.016Z,4.90
2023-07-31T18:43:55.457Z,4.55
2023-07-31T18:46:24.021Z,7.50
2023-07-31T18:48:52.587Z,7.55
2023-07-31T18:51:21.098Z,9.15
2023-07-31T18:53:49.553Z,7.50
2023-07-31T18:56:20.001Z,6.18
2023-07-31T18:58:50.075Z,6.03
2023-07-31T19:01:18.629Z,6.22
2023-07-31T19:03:47.218Z,5.38
2023-07-31T19:06:15.757Z,5.43
2023-07-31T19:08:44.668Z,7.82
2023-07-31T19:11:20.796Z,5.65
2023-07-31T19:13:59.825Z,5.72
2023-07-31T19:16:28.356Z,5.78
2023-07-31T19:18:56.829Z,6.97
2023-07-31T19:21:25.351Z,6.20
2023-07-31T19:23:53.832Z,6.47
2023-07-31T19:26:22.259Z,5.60
2023-07-31T19:28:50.907Z,5.82
2023-07-31T19:31:20.840Z,6.53
2023-07-31T19:33:49.508Z,6.05
2023-07-31T19:36:17.955Z,6.18
2023-07-31T19:38:46.414Z,7.22
2023-07-31T19:41:16.304Z,7.90
2023-07-31T19:43:44.769Z,8.05
2023-07-31T19:46:13.339Z,8.77
2023-07-31T19:48:43.417Z,6.57
2023-07-31T19:51:12.704Z,6.65
2023-07-31T19:53:41.197Z,7.05
2023-07-31T19:56:09.664Z,9.00
2023-07-31T19:58:38.132Z,15.52
2023-07-31T20:01:06.666Z,13.27
2023-07-31T20:03:35.153Z,13.32
2023-07-31T20:06:05.066Z,12.30
2023-07-31T20:08:33.492Z,11.63
2023-07-31T20:11:01.953Z,9.63
2023-07-31T20:13:30.446Z,9.32
2023-07-31T20:15:58.950Z,8.63
2023-07-31T20:18:27.435Z,7.88
2023-07-31T20:20:55.938Z,8.23
2023-07-31T20:23:37.080Z,8.18
2023-07-31T20:26:11.473Z,7.43
2023-07-31T20:28:40.226Z,8.65
2023-07-31T20:31:08.847Z,11.85
2023-07-31T20:33:37.613Z,7.00
2023-07-31T20:36:07.632Z,6.20
2023-07-31T20:38:37.547Z,6.55
2023-07-31T20:41:06.340Z,6.78
2023-07-31T20:43:33.771Z,6.88
2023-07-31T20:46:02.323Z,5.03
2023-07-31T20:48:30.814Z,4.28
2023-07-31T20:51:02.008Z,5.82
2023-07-31T20:53:30.544Z,4.05
2023-07-31T20:56:00.445Z,5.38
2023-07-31T20:58:28.904Z,6.22
2023-07-31T21:00:57.429Z,5.05
2023-07-31T21:03:26.223Z,4.25
2023-07-31T21:05:55.146Z,3.80
2023-07-31T21:08:23.648Z,3.08
2023-07-31T21:10:52.714Z,4.55
2023-07-31T21:13:23.040Z,3.92
2023-07-31T21:15:51.570Z,4.72
2023-07-31T21:18:20.090Z,3.00
2023-07-31T21:20:49.562Z,3.33
2023-07-31T21:23:18.049Z,3.17
2023-07-31T21:25:46.563Z,4.63
2023-07-31T21:28:15.046Z,4.07
2023-07-31T21:30:44.993Z,3.53
2023-07-31T21:33:13.590Z,3.47
2023-07-31T21:35:42.185Z,3.65
2023-07-31T21:38:10.613Z,3.70
2023-07-31T21:40:39.233Z,3.67
2023-07-31T21:43:07.680Z,3.55
2023-07-31T21:45:37.257Z,6.05
2023-07-31T21:48:07.388Z,4.78
2023-07-31T21:50:35.862Z,3.15
2023-07-31T21:53:04.280Z,3.00
2023-07-31T21:55:32.766Z,5.53
2023-07-31T21:58:01.221Z,4.18
2023-07-31T22:00:29.696Z,3.00
2023-07-31T22:02:58.210Z,4.30
2023-07-31T22:05:28.105Z,4.05
2023-07-31T22:07:56.569Z,3.55
2023-07-31T22:10:25.063Z,3.25
2023-07-31T22:12:53.524Z,3.47
2023-07-31T22:15:21.992Z,3.08
2023-07-31T22:17:50.901Z,3.25
2023-07-31T22:20:19.396Z,3.72
2023-07-31T22:22:49.183Z,3.25
2023-07-31T22:25:17.676Z,3.63
2023-07-31T22:27:46.128Z,3.72
2023-07-31T22:30:14.634Z,3.88
2023-07-31T22:32:43.348Z,4.03
2023-07-31T22:35:11.803Z,3.30
2023-07-31T22:37:40.235Z,3.95
2023-07-31T22:40:11.197Z,3.80
2023-07-31T22:42:39.655Z,4.10
2023-07-31T22:45:08.603Z,3.17
2023-07-31T22:47:38.435Z,3.60
2023-07-31T22:50:07.534Z,3.90
2023-07-31T22:52:37.357Z,3.38
2023-07-31T22:55:06.020Z,3.20
2023-07-31T22:57:35.852Z,4.50
2023-07-31T23:00:04.568Z,4.00
2023-07-31T23:02:33.161Z,4.25
2023-07-31T23:05:01.664Z,3.97
2023-07-31T23:07:30.141Z,4.88
2023-07-31T23:09:58.618Z,3.88
2023-07-31T23:12:27.067Z,3.50
2023-07-31T23:14:56.897Z,4.57
2023-07-31T23:17:25.395Z,3.28
2023-07-31T23:19:53.845Z,4.18
2023-07-31T23:22:22.288Z,3.78
2023-07-31T23:24:50.764Z,4.65
2023-07-31T23:27:19.202Z,3.85
2023-07-31T23:29:47.724Z,3.17
2023-07-31T23:32:17.756Z,4.10
2023-07-31T23:34:46.196Z,3.30
2023-07-31T23:37:14.620Z,3.45
2023-07-31T23:39:43.069Z,3.10
2023-07-31T23:42:11.511Z,3.42
2023-07-31T23:44:39.998Z,4.22
2023-07-31T23:47:08.828Z,3.30
2023-07-31T23:49:38.650Z,3.25
2023-07-31T23:52:07.381Z,4.35
2023-07-31T23:54:36.213Z,3.40
2023-07-31T23:57:05.252Z,3.17
2023-07-31T23:59:33.822Z,3.38
